Time;durP1;ratioP1;P1;durP2;ratioP2;P2;SDS_P1;SDS_P2;PMS_P1;PMS_P2;Temp;Humidity;BMP_temperature;BMP_pressure;BME280_temperature;BME280_humidity;BME280_pressure;Samples;Min_cycle;Max_cycle;Signal;HPM_P1;HPM_P2
2022/02/12 00:02:17;;;;;;;;;;;;;;;19.93;23.10;102388.97;5051785;28;1975;-72
2022/02/12 00:04:43;;;;;;;;;;;;;;;20.16;22.89;102398.66;5034668;28;1251;-73
2022/02/12 00:07:09;;;;;;;;;;;;;;;20.02;22.99;102404.63;5035119;28;796;-73
2022/02/12 00:09:37;;;;;;;;;;;;;;;20.22;22.58;102409.09;5052704;28;718;-73
2022/02/12 00:12:04;;;;;;;;;;;;;;;20.37;22.70;102405.88;5052625;28;951;-73
2022/02/12 00:14:30;;;;;;;;;;;;;;;20.21;22.76;102406.47;5034494;28;1041;-72
2022/02/12 00:16:57;;;;;;;;;;;;;;;20.16;22.80;102406.94;5052709;28;904;-72
2022/02/12 00:19:23;;;;;;;;;;;;;;;19.58;23.33;102407.78;5034370;28;1426;-72
2022/02/12 00:21:50;;;;;;;;;;;;;;;20.11;22.81;102406.50;5052504;28;1977;-73
2022/02/12 00:24:16;;;;;;;;;;;;;;;19.91;23.24;102416.69;5052049;28;1030;-73
2022/02/12 00:26:43;;;;;;;;;;;;;;;20.11;22.95;102413.88;5052222;28;784;-74
2022/02/12 00:29:10;;;;;;;;;;;;;;;20.21;22.62;102412.84;5052223;28;1289;-73
2022/02/12 00:31:36;;;;;;;;;;;;;;;20.08;22.71;102417.81;5052178;28;1070;-73
2022/02/12 00:34:02;;;;;;;;;;;;;;;20.13;22.83;102417.38;5051144;28;804;-73
2022/02/12 00:36:29;;;;;;;;;;;;;;;19.81;23.26;102424.91;5051977;28;880;-73
2022/02/12 00:38:55;;;;;;;;;;;;;;;20.08;22.75;102426.06;5052080;28;1286;-73
2022/02/12 00:41:21;;;;;;;;;;;;;;;20.40;22.29;102434.03;5034212;28;1094;-73
2022/02/12 00:43:49;;;;;;;;;;;;;;;20.39;22.48;102440.56;5034221;28;1914;-73
2022/02/12 00:46:15;;;;;;;;;;;;;;;19.92;22.97;102437.69;5033733;28;892;-73
2022/02/12 00:48:42;;;;;;;;;;;;;;;20.49;22.40;102437.75;5033956;28;1323;-73
2022/02/12 00:51:08;;;;;;;;;;;;;;;20.01;22.86;102425.78;5051817;28;967;-73
2022/02/12 00:53:34;;;;;;;;;;;;;;;20.28;22.61;102426.91;5033948;28;1059;-73
2022/02/12 00:56:00;;;;;;;;;;;;;;;20.13;22.92;102425.66;5051197;28;900;-73
2022/02/12 00:58:27;;;;;;;;;;;;;;;20.12;23.01;102418.38;5051620;28;1357;-73
2022/02/12 01:00:54;;;;;;;;;;;;;;;20.24;22.68;102418.09;5034147;28;1319;-74
2022/02/12 01:03:21;;;;;;;;;;;;;;;19.81;23.48;102413.03;5033878;28;1918;-73
2022/02/12 01:05:48;;;;;;;;;;;;;;;19.94;23.32;102423.78;5051356;28;970;-73
2022/02/12 01:08:14;;;;;;;;;;;;;;;20.32;22.58;102435.78;5051683;28;1414;-73
2022/02/12 01:10:40;;;;;;;;;;;;;;;20.16;22.54;102436.38;5049929;28;809;-74
2022/02/12 01:13:07;;;;;;;;;;;;;;;20.35;22.32;102443.75;5049022;23;3486;-76
2022/02/12 01:15:33;;;;;;;;;;;;;;;20.38;22.39;102446.22;5032117;28;1698;-76
2022/02/12 01:18:01;;;;;;;;;;;;;;;20.52;22.38;102447.63;5033850;28;1179;-77
2022/02/12 01:20:28;;;;;;;;;;;;;;;20.63;22.44;102441.97;5033688;28;1280;-77
2022/02/12 01:22:54;;;;;;;;;;;;;;;20.27;23.05;102449.13;5051027;28;1985;-80
2022/02/12 01:25:21;;;;;;;;;;;;;;;20.04;23.15;102457.69;5033388;28;741;-80
2022/02/12 01:27:47;;;;;;;;;;;;;;;19.39;23.85;102453.53;5051197;28;982;-77
2022/02/12 01:30:14;;;;;;;;;;;;;;;19.68;23.59;102469.25;5051032;28;848;-78
2022/02/12 01:32:40;;;;;;;;;;;;;;;19.78;23.48;102455.50;5050708;28;991;-78
2022/02/12 01:35:10;;;;;;;;;;;;;;;19.21;24.14;102456.09;5032858;28;1321;-78
2022/02/12 01:37:36;;;;;;;;;;;;;;;19.47;24.09;102452.84;5029643;28;1571;-77
2022/02/12 01:40:03;;;;;;;;;;;;;;;20.35;22.81;102449.25;5030882;28;948;-78
2022/02/12 01:42:29;;;;;;;;;;;;;;;20.30;22.36;102451.63;5030909;28;1918;-78
2022/02/12 01:44:55;;;;;;;;;;;;;;;19.76;23.24;102465.78;5030628;28;1306;-77
2022/02/12 01:47:22;;;;;;;;;;;;;;;19.80;22.90;102466.38;5013215;28;716;-77
2022/02/12 01:49:48;;;;;;;;;;;;;;;19.55;23.84;102469.53;5030779;28;967;-79
2022/02/12 01:52:20;;;;;;;;;;;;;;;19.74;23.33;102465.91;5030978;28;844;-77
2022/02/12 01:54:47;;;;;;;;;;;;;;;19.44;23.61;102475.16;5030733;28;1411;-77
2022/02/12 01:57:14;;;;;;;;;;;;;;;19.49;23.75;102467.31;5030940;28;896;-78
2022/02/12 01:59:41;;;;;;;;;;;;;;;19.42;23.51;102468.91;5013319;28;955;-77
2022/02/12 02:02:08;;;;;;;;;;;;;;;19.29;23.79;102457.28;5030319;28;890;-78
2022/02/12 02:04:35;;;;;;;;;;;;;;;19.31;23.76;102472.66;5012607;28;1918;-78
2022/02/12 02:07:01;;;;;;;;;;;;;;;19.48;23.25;102460.09;5012858;28;880;-77
2022/02/12 02:09:30;;;;;;;;;;;;;;;18.86;24.40;102457.34;5030305;28;789;-80
2022/02/12 02:11:56;;;;;;;;;;;;;;;19.77;22.87;102461.16;5012968;28;904;-78
2022/02/12 02:14:29;;;;;;;;;;;;;;;19.14;23.88;102465.91;5045574;28;1605;-77
2022/02/12 02:16:56;;;;;;;;;;;;;;;19.44;23.46;102469.66;5032523;28;1148;-77
2022/02/12 02:19:22;;;;;;;;;;;;;;;19.66;22.97;102467.66;5050410;28;737;-75
2022/02/12 02:21:52;;;;;;;;;;;;;;;19.87;22.72;102471.19;5050464;28;726;-77
2022/02/12 02:24:21;;;;;;;;;;;;;;;19.18;23.73;102483.03;5049653;28;1977;-79
2022/02/12 02:26:47;;;;;;;;;;;;;;;19.04;24.02;102487.00;5032504;28;1055;-78
2022/02/12 02:29:14;;;;;;;;;;;;;;;18.85;24.27;102479.50;5050440;28;765;-78
2022/02/12 02:31:40;;;;;;;;;;;;;;;18.43;24.84;102476.81;5050517;28;711;-78
2022/02/12 02:34:08;;;;;;;;;;;;;;;19.13;24.00;102477.94;5032205;28;1320;-78
2022/02/12 02:36:35;;;;;;;;;;;;;;;19.26;23.69;102487.84;5050292;28;904;-78
2022/02/12 02:39:01;;;;;;;;;;;;;;;18.89;24.10;102483.75;5050265;28;943;-78
2022/02/12 02:41:29;;;;;;;;;;;;;;;18.61;24.60;102475.16;5050017;28;975;-77
2022/02/12 02:43:55;;;;;;;;;;;;;;;19.13;23.90;102468.81;5031997;28;1980;-77
2022/02/12 02:46:22;;;;;;;;;;;;;;;19.00;23.96;102474.53;5032032;28;1219;-77
2022/02/12 02:48:48;;;;;;;;;;;;;;;18.63;25.01;102483.31;5050108;28;765;-77
2022/02/12 02:56:44;;;;;;;;;;;;;;;18.61;24.90;102490.81;5050255;28;848;-76
2022/02/12 02:59:11;;;;;;;;;;;;;;;19.05;24.21;102483.25;5050324;28;871;-77
2022/02/12 03:01:37;;;;;;;;;;;;;;;18.79;24.35;102483.69;5050474;28;785;-77
2022/02/12 03:04:04;;;;;;;;;;;;;;;18.44;24.74;102481.28;5032054;28;1915;-77
2022/02/12 03:06:31;;;;;;;;;;;;;;;18.44;24.68;102473.94;5050493;28;904;-77
2022/02/12 03:08:58;;;;;;;;;;;;;;;18.49;24.42;102479.00;5050725;28;920;-77
2022/02/12 03:11:24;;;;;;;;;;;;;;;18.68;24.42;102486.50;5050172;28;785;-75
2022/02/12 03:13:55;;;;;;;;;;;;;;;19.43;23.47;102483.53;5052310;28;1286;-77
2022/02/12 03:16:21;;;;;;;;;;;;;;;18.80;24.23;102479.03;5053622;28;836;-77
2022/02/12 03:18:48;;;;;;;;;;;;;;;18.94;24.35;102469.63;5035991;28;939;-76
2022/02/12 03:21:15;;;;;;;;;;;;;;;19.06;23.88;102476.75;5053764;28;781;-76
2022/02/12 03:23:42;;;;;;;;;;;;;;;19.08;24.00;102477.50;5053405;28;1918;-76
2022/02/12 03:26:08;;;;;;;;;;;;;;;19.57;23.25;102473.03;5053870;28;789;-76
2022/02/12 03:28:35;;;;;;;;;;;;;;;18.03;24.93;102476.50;5035355;28;1572;-76
2022/02/12 03:31:02;;;;;;;;;;;;;;;19.42;22.93;102488.19;5053493;28;1144;-76
2022/02/12 03:33:28;;;;;;;;;;;;;;;19.77;22.65;102478.53;5032885;28;1923;-76
2022/02/12 03:35:55;;;;;;;;;;;;;;;19.77;22.43;102489.56;5050950;28;1370;-76
2022/02/12 03:38:23;;;;;;;;;;;;;;;19.61;22.61;102478.22;5052917;28;1566;-76
2022/02/12 03:40:51;;;;;;;;;;;;;;;19.21;23.25;102483.63;5053398;28;765;-76
2022/02/12 03:43:18;;;;;;;;;;;;;;;19.47;22.64;102474.88;5053031;28;1979;-73
2022/02/12 03:45:44;;;;;;;;;;;;;;;19.36;22.79;102483.22;5035401;28;924;-76
2022/02/12 03:48:12;;;;;;;;;;;;;;;18.83;23.61;102485.16;5053059;28;986;-75
2022/02/12 03:50:39;;;;;;;;;;;;;;;18.35;24.06;102480.22;5053022;28;888;-76
2022/02/12 03:53:06;;;;;;;;;;;;;;;18.32;24.41;102485.97;5053106;28;1330;-77
2022/02/12 03:55:37;;;;;;;;;;;;;;;18.75;24.00;102479.47;5052907;28;895;-74
2022/02/12 03:58:03;;;;;;;;;;;;;;;19.09;23.38;102490.22;5035023;28;1354;-75
2022/02/12 04:00:29;;;;;;;;;;;;;;;18.85;23.55;102482.25;5018992;28;1280;-76
2022/02/12 04:02:57;;;;;;;;;;;;;;;19.32;22.90;102487.28;5052838;28;1326;-76
2022/02/12 04:05:25;;;;;;;;;;;;;;;19.26;22.71;102490.59;5052750;28;776;-75
2022/02/12 04:07:51;;;;;;;;;;;;;;;19.29;22.54;102490.31;5052767;28;954;-75
2022/02/12 04:10:18;;;;;;;;;;;;;;;19.47;22.39;102488.63;5052779;28;1069;-75
2022/02/12 04:12:45;;;;;;;;;;;;;;;18.77;23.15;102482.94;5034836;28;1090;-74
2022/02/12 04:15:12;;;;;;;;;;;;;;;19.14;22.26;102482.44;5052072;28;1312;-77
2022/02/12 04:17:39;;;;;;;;;;;;;;;18.88;22.66;102474.66;5052261;28;884;-74
2022/02/12 04:20:07;;;;;;;;;;;;;;;18.82;22.71;102477.03;5034828;28;794;-74
2022/02/12 04:22:35;;;;;;;;;;;;;;;18.33;23.38;102474.88;5052501;28;1034;-75
2022/02/12 04:25:02;;;;;;;;;;;;;;;17.87;24.22;102468.66;5051697;28;1922;-76
2022/02/12 04:27:29;;;;;;;;;;;;;;;18.67;22.96;102469.13;5052299;28;796;-75
2022/02/12 04:29:56;;;;;;;;;;;;;;;18.76;23.10;102472.97;5052302;28;985;-75
2022/02/12 04:32:23;;;;;;;;;;;;;;;18.79;22.58;102469.06;5017782;28;1437;-76
2022/02/12 04:34:50;;;;;;;;;;;;;;;18.85;22.94;102471.25;5051805;28;1399;-74
2022/02/12 04:37:18;;;;;;;;;;;;;;;19.31;22.41;102467.16;5034331;28;1010;-74
2022/02/12 04:39:46;;;;;;;;;;;;;;;19.40;22.19;102465.41;5052187;28;971;-74
2022/02/12 04:42:13;;;;;;;;;;;;;;;19.17;22.13;102465.63;5052124;28;813;-76
2022/02/12 04:44:39;;;;;;;;;;;;;;;18.95;22.81;102463.06;5051572;28;1922;-76
2022/02/12 04:47:06;;;;;;;;;;;;;;;18.44;23.46;102464.78;5034041;28;1307;-74
2022/02/12 04:49:34;;;;;;;;;;;;;;;18.64;22.86;102468.53;5034117;28;983;-74
2022/02/12 04:52:00;;;;;;;;;;;;;;;19.10;22.10;102480.97;5033946;28;1053;-75
2022/02/12 04:54:26;;;;;;;;;;;;;;;19.14;21.84;102471.41;5051416;28;1314;-74
2022/02/12 04:56:54;;;;;;;;;;;;;;;18.99;22.29;102472.81;5051734;28;994;-74
2022/02/12 04:59:20;;;;;;;;;;;;;;;18.90;21.88;102469.88;5033858;28;782;-74
2022/02/12 05:01:46;;;;;;;;;;;;;;;18.98;22.03;102462.81;5051824;28;812;-75
2022/02/12 05:04:13;;;;;;;;;;;;;;;18.27;22.73;102463.53;5049885;28;1979;-78
2022/02/12 05:06:39;;;;;;;;;;;;;;;17.78;23.14;102466.69;5033962;28;995;-74
2022/02/12 05:09:05;;;;;;;;;;;;;;;17.59;23.51;102463.78;5051596;28;972;-74
2022/02/12 05:11:31;;;;;;;;;;;;;;;17.26;24.04;102468.31;5051455;28;800;-73
2022/02/12 05:13:59;;;;;;;;;;;;;;;17.40;24.33;102468.91;5051305;28;1292;-72
2022/02/12 05:16:25;;;;;;;;;;;;;;;18.27;22.57;102463.53;5051079;28;1066;-74
2022/02/12 05:18:52;;;;;;;;;;;;;;;17.80;23.14;102467.44;5051477;28;1023;-75
2022/02/12 05:21:18;;;;;;;;;;;;;;;16.71;25.13;102463.53;5051270;28;877;-74
2022/02/12 05:23:44;;;;;;;;;;;;;;;17.33;24.44;102455.81;5051235;28;1906;-76
2022/02/12 05:26:11;;;;;;;;;;;;;;;18.28;23.13;102468.91;5050916;28;983;-77
2022/02/12 05:28:37;;;;;;;;;;;;;;;17.95;23.55;102470.78;5051276;28;1057;-76
2022/02/12 05:31:05;;;;;;;;;;;;;;;18.18;23.34;102466.03;5050958;28;1491;-74
2022/02/12 05:33:34;;;;;;;;;;;;;;;18.31;23.36;102474.13;5050684;28;1478;-75
2022/02/12 05:36:00;;;;;;;;;;;;;;;18.10;23.82;102467.72;5050081;28;769;-76
2022/02/12 05:38:26;;;;;;;;;;;;;;;18.31;23.09;102463.13;5051261;28;880;-76
2022/02/12 05:40:52;;;;;;;;;;;;;;;18.41;22.79;102474.16;5051021;28;978;-76
2022/02/12 05:43:19;;;;;;;;;;;;;;;17.48;24.42;102471.03;5050800;28;1333;-74
2022/02/12 05:45:45;;;;;;;;;;;;;;;17.10;24.71;102476.94;5050295;28;1981;-75
2022/02/12 05:48:12;;;;;;;;;;;;;;;18.15;23.07;102466.31;5033260;28;733;-74
2022/02/12 05:50:39;;;;;;;;;;;;;;;18.31;23.05;102474.13;5050717;28;978;-74
2022/02/12 05:53:06;;;;;;;;;;;;;;;17.69;24.00;102481.19;5050862;28;1347;-76
2022/02/12 05:55:32;;;;;;;;;;;;;;;17.62;24.02;102482.72;5032540;28;1356;-77
2022/02/12 05:57:59;;;;;;;;;;;;;;;17.22;24.57;102482.28;5050837;28;990;-75
2022/02/12 06:00:25;;;;;;;;;;;;;;;17.16;24.97;102477.28;5055436;28;1417;-73
2022/02/12 06:02:51;;;;;;;;;;;;;;;16.95;25.03;102485.41;5037308;28;1358;-73
2022/02/12 06:05:19;;;;;;;;;;;;;;;17.67;24.12;102485.97;5046743;28;1979;-75
2022/02/12 06:07:45;;;;;;;;;;;;;;;17.97;23.51;102484.38;5052542;28;943;-77
2022/02/12 06:10:13;;;;;;;;;;;;;;;17.46;24.43;102475.75;5052478;28;1225;-77
2022/02/12 06:12:39;;;;;;;;;;;;;;;17.47;24.19;102480.25;5036096;28;1160;-77
2022/02/12 06:15:06;;;;;;;;;;;;;;;17.41;24.45;102478.03;5052132;28;1312;-77
2022/02/12 06:17:32;;;;;;;;;;;;;;;17.21;24.65;102477.78;5070418;28;879;-77
2022/02/12 06:19:59;;;;;;;;;;;;;;;17.19;24.46;102476.19;5052612;28;1041;-76
2022/02/12 06:22:27;;;;;;;;;;;;;;;17.36;24.43;102488.50;5070316;28;844;-78
2022/02/12 06:24:54;;;;;;;;;;;;;;;17.55;24.17;102485.97;5070071;28;1980;-77
2022/02/12 06:27:20;;;;;;;;;;;;;;;17.56;24.11;102492.34;5070721;28;1085;-77
2022/02/12 06:29:46;;;;;;;;;;;;;;;17.65;24.01;102487.94;5052604;28;990;-77
2022/02/12 06:32:13;;;;;;;;;;;;;;;17.52;24.05;102488.97;5050414;28;1580;-77
2022/02/12 06:34:39;;;;;;;;;;;;;;;17.59;24.20;102493.97;5066464;28;1595;-78
2022/02/12 06:37:05;;;;;;;;;;;;;;;17.99;24.09;102487.88;5071799;28;1041;-80
2022/02/12 06:39:33;;;;;;;;;;;;;;;17.98;23.80;102499.88;5058136;28;1466;-78
2022/02/12 06:42:01;;;;;;;;;;;;;;;18.18;23.78;102489.91;5051841;28;963;-79
2022/02/12 06:44:27;;;;;;;;;;;;;;;18.36;24.02;102498.47;5040235;28;1922;-77
2022/02/12 06:46:53;;;;;;;;;;;;;;;18.72;23.60;102490.75;5049707;28;1353;-77
2022/02/12 06:49:20;;;;;;;;;;;;;;;18.00;24.05;102489.63;5068908;28;1390;-76
2022/02/12 06:51:46;;;;;;;;;;;;;;;17.74;24.58;102492.66;5069138;28;1536;-78
2022/02/12 06:54:13;;;;;;;;;;;;;;;18.00;24.26;102486.91;5044351;28;1511;-77
2022/02/12 06:56:40;;;;;;;;;;;;;;;17.60;24.76;102485.59;5035371;28;1478;-76
2022/02/12 06:59:06;;;;;;;;;;;;;;;18.06;24.45;102484.50;5072536;28;792;-77
2022/02/12 07:01:33;;;;;;;;;;;;;;;17.96;24.55;102486.28;5064832;28;1179;-77
2022/02/12 07:03:59;;;;;;;;;;;;;;;18.03;24.87;102490.22;5051756;28;1914;-77
2022/02/12 07:06:25;;;;;;;;;;;;;;;17.87;25.14;102487.88;5027877;28;1426;-77
2022/02/12 07:08:52;;;;;;;;;;;;;;;18.03;25.20;102492.13;5052030;28;774;-76
2022/02/12 07:11:18;;;;;;;;;;;;;;;18.58;24.60;102491.94;5052547;28;1450;-76
2022/02/12 07:13:46;;;;;;;;;;;;;;;19.30;24.14;102494.81;5030759;28;1402;-75
2022/02/12 07:16:12;;;;;;;;;;;;;;;19.26;24.35;102487.84;5046288;28;1540;-76
2022/02/12 07:18:38;;;;;;;;;;;;;;;19.59;23.73;102492.16;5055588;28;1039;-76
2022/02/12 07:21:05;;;;;;;;;;;;;;;19.67;23.80;102489.56;5073059;28;1578;-77
2022/02/12 07:23:32;;;;;;;;;;;;;;;19.29;24.61;102501.31;5067452;28;1397;-77
2022/02/12 07:25:58;;;;;;;;;;;;;;;18.84;25.35;102497.03;5045967;28;1915;-77
2022/02/12 07:28:27;;;;;;;;;;;;;;;18.84;25.15;102497.91;5053060;28;1451;-77
2022/02/12 07:30:55;;;;;;;;;;;;;;;19.19;24.64;102499.41;5053287;28;1470;-77
2022/02/12 07:33:22;;;;;;;;;;;;;;;19.32;24.56;102498.28;5034830;28;1447;-77
2022/02/12 07:35:49;;;;;;;;;;;;;;;19.32;24.81;102495.53;5035371;28;999;-76
2022/02/12 07:38:16;;;;;;;;;;;;;;;18.53;25.76;102497.88;5065073;23;3753;-74
2022/02/12 07:40:42;;;;;;;;;;;;;;;19.12;25.19;102500.97;5058126;28;1422;-72
2022/02/12 07:43:08;;;;;;;;;;;;;;;19.47;24.71;102507.91;5071498;28;1018;-73
2022/02/12 07:45:35;;;;;;;;;;;;;;;19.82;24.30;102502.97;5040836;28;1980;-77
2022/02/12 07:48:02;;;;;;;;;;;;;;;18.92;25.40;102501.88;5052280;28;1515;-76
2022/02/12 07:50:29;;;;;;;;;;;;;;;19.52;24.81;102504.72;5033811;28;1482;-75
2022/02/12 07:52:55;;;;;;;;;;;;;;;19.50;24.92;102513.13;5008042;28;1307;-75
2022/02/12 07:55:22;;;;;;;;;;;;;;;20.29;24.22;102494.84;5050631;28;1520;-77
2022/02/12 07:57:48;;;;;;;;;;;;;;;20.77;23.71;102497.72;5051647;28;1485;-74
2022/02/12 08:00:16;;;;;;;;;;;;;;;21.72;22.63;102498.47;5054129;28;1498;-78
2022/02/12 08:02:43;;;;;;;;;;;;;;;21.82;22.74;102498.38;5050635;28;1576;-78
2022/02/12 08:05:11;;;;;;;;;;;;;;;21.48;23.14;102505.38;5045361;28;1967;-76
2022/02/12 08:07:37;;;;;;;;;;;;;;;22.74;22.24;102505.47;5051084;28;1293;-78
2022/02/12 08:11:22;;;;;;;;;;;;;;;21.97;22.59;102507.03;5051033;28;1394;-76
2022/02/12 08:12:52;;;;;;;;;;;;;;;22.61;21.81;102510.56;5051059;28;1683;-76
2022/02/12 08:15:18;;;;;;;;;;;;;;;22.82;21.89;102506.53;5035384;28;1157;-77
2022/02/12 08:17:44;;;;;;;;;;;;;;;23.12;21.05;102507.06;5053862;28;1303;-78
2022/02/12 08:20:12;;;;;;;;;;;;;;;23.68;20.56;102507.50;5053201;28;888;-77
2022/02/12 08:22:39;;;;;;;;;;;;;;;23.82;20.86;102508.75;5052856;28;765;-77
2022/02/12 08:25:06;;;;;;;;;;;;;;;23.42;20.92;102511.22;5043440;28;2264;-76
2022/02/12 08:27:33;;;;;;;;;;;;;;;25.21;19.98;102505.09;5024027;28;1599;-77
2022/02/12 08:30:00;;;;;;;;;;;;;;;25.16;19.40;102499.19;5041259;28;1187;-75
2022/02/12 08:32:27;;;;;;;;;;;;;;;25.03;19.39;102505.31;5024927;28;1488;-75
2022/02/12 08:34:54;;;;;;;;;;;;;;;25.37;19.35;102509.75;5041633;28;1243;-77
2022/02/12 08:37:22;;;;;;;;;;;;;;;26.35;18.96;102503.75;5040597;28;1415;-77
2022/02/12 08:39:49;;;;;;;;;;;;;;;25.39;19.02;102504.84;5039440;28;1120;-76
2022/02/12 08:42:15;;;;;;;;;;;;;;;24.38;20.08;102509.88;5032107;28;1287;-76
2022/02/12 08:44:42;;;;;;;;;;;;;;;25.24;19.51;102504.72;5037216;28;1918;-76
2022/02/12 08:47:09;;;;;;;;;;;;;;;25.14;19.02;102503.19;5031692;28;1659;-75
2022/02/12 08:49:36;;;;;;;;;;;;;;;25.53;19.29;102503.22;5041337;28;1654;-74
2022/02/12 08:52:02;;;;;;;;;;;;;;;25.67;19.53;102496.03;5031387;28;1830;-74
2022/02/12 08:54:30;;;;;;;;;;;;;;;24.33;20.27;102506.78;5033993;28;1034;-76
2022/02/12 08:56:56;;;;;;;;;;;;;;;23.44;21.37;102509.16;5052088;28;1290;-76
2022/02/12 08:59:23;;;;;;;;;;;;;;;25.06;19.62;102501.31;5034084;28;1192;-75
2022/02/12 09:01:49;;;;;;;;;;;;;;;25.24;20.02;102501.06;5033921;28;1014;-75
2022/02/12 09:04:15;;;;;;;;;;;;;;;23.72;21.23;102500.59;5051531;28;958;-75
2022/02/12 09:06:42;;;;;;;;;;;;;;;26.21;19.37;102492.38;5051658;28;1983;-76
2022/02/12 09:09:09;;;;;;;;;;;;;;;25.05;19.33;102494.91;5051588;28;872;-76
2022/02/12 09:11:38;;;;;;;;;;;;;;;24.89;19.83;102495.81;5051891;28;829;-75
2022/02/12 09:14:05;;;;;;;;;;;;;;;24.66;19.97;102500.34;5051429;28;842;-74
2022/02/12 09:16:31;;;;;;;;;;;;;;;25.14;19.89;102492.09;5051883;28;981;-76
2022/02/12 09:18:57;;;;;;;;;;;;;;;23.78;20.97;102510.97;5051788;28;1286;-75
2022/02/12 09:21:24;;;;;;;;;;;;;;;25.93;18.83;102508.72;5036215;28;1137;-75
2022/02/12 09:23:51;;;;;;;;;;;;;;;26.12;18.64;102504.63;5051160;28;1467;-75
2022/02/12 09:26:19;;;;;;;;;;;;;;;25.14;19.77;102508.75;5051073;28;1975;-75
2022/02/12 09:28:46;;;;;;;;;;;;;;;26.02;19.20;102504.84;5051290;28;1366;-76
2022/02/12 09:31:13;;;;;;;;;;;;;;;27.16;18.43;102498.41;5051995;28;824;-75
2022/02/12 09:33:39;;;;;;;;;;;;;;;26.18;18.55;102501.09;5051840;28;1078;-75
2022/02/12 09:36:05;;;;;;;;;;;;;;;25.88;19.49;102489.81;5048420;28;2026;-74
2022/02/12 09:38:32;;;;;;;;;;;;;;;23.92;21.09;102487.31;5044582;28;1298;-75
2022/02/12 09:40:58;;;;;;;;;;;;;;;23.65;20.89;102491.19;5032674;28;1179;-74
2022/02/12 09:43:26;;;;;;;;;;;;;;;24.79;20.00;102483.16;5045786;28;1559;-75
2022/02/12 09:46:14;;;;;;;;;;;;;;;26.09;18.87;102485.53;5028178;28;1971;-76
2022/02/12 09:48:40;;;;;;;;;;;;;;;26.27;18.84;102489.91;5044376;28;1399;-75
2022/02/12 09:51:07;;;;;;;;;;;;;;;26.11;19.47;102488.13;5033807;28;971;-76
2022/02/12 09:53:33;;;;;;;;;;;;;;;26.75;18.35;102490.53;5033767;28;1252;-75
2022/02/12 09:56:01;;;;;;;;;;;;;;;24.59;20.32;102491.84;5033507;28;975;-75
2022/02/12 09:58:28;;;;;;;;;;;;;;;24.05;20.49;102484.03;5051241;28;1385;-75
2022/02/12 10:00:54;;;;;;;;;;;;;;;24.02;21.10;102476.91;5051216;28;911;-75
2022/02/12 10:03:21;;;;;;;;;;;;;;;26.70;18.28;102479.94;5051114;28;919;-75
2022/02/12 10:05:50;;;;;;;;;;;;;;;26.25;18.48;102470.63;5033314;28;1975;-75
2022/02/12 10:08:17;;;;;;;;;;;;;;;26.71;17.53;102478.03;5050349;28;1664;-75
2022/02/12 10:10:46;;;;;;;;;;;;;;;27.51;17.03;102478.31;5051558;28;1090;-75
2022/02/12 10:13:14;;;;;;;;;;;;;;;27.58;16.88;102470.03;5032685;28;884;-75
2022/02/12 10:15:41;;;;;;;;;;;;;;;27.12;16.94;102476.72;5050666;28;994;-76
2022/02/12 10:18:08;;;;;;;;;;;;;;;24.19;19.71;102463.91;5032689;28;1298;-74
2022/02/12 10:20:36;;;;;;;;;;;;;;;26.14;18.26;102473.84;5033459;28;931;-74
2022/02/12 10:23:07;;;;;;;;;;;;;;;24.93;19.31;102462.97;5050174;28;797;-74
2022/02/12 10:25:34;;;;;;;;;;;;;;;26.35;18.12;102462.00;5050274;28;1914;-74
2022/02/12 10:28:00;;;;;;;;;;;;;;;26.27;17.78;102462.06;5032508;28;1399;-74
2022/02/12 10:30:27;;;;;;;;;;;;;;;25.85;18.11;102454.03;5032479;28;1109;-74
2022/02/12 10:32:54;;;;;;;;;;;;;;;26.27;18.24;102462.06;5050152;28;975;-74
2022/02/12 10:35:21;;;;;;;;;;;;;;;26.98;17.97;102451.44;5032143;28;840;-74
2022/02/12 10:37:48;;;;;;;;;;;;;;;23.03;20.69;102459.06;5032510;28;1401;-74
2022/02/12 10:40:15;;;;;;;;;;;;;;;25.76;18.51;102448.72;5050396;28;963;-74
2022/02/12 10:42:44;;;;;;;;;;;;;;;26.82;17.03;102446.94;5049859;28;1055;-74
2022/02/12 10:45:13;;;;;;;;;;;;;;;27.13;16.26;102440.28;5049303;28;1906;-75
2022/02/12 10:47:41;;;;;;;;;;;;;;;26.74;17.32;102438.69;5015202;28;1384;-74
2022/02/12 10:50:07;;;;;;;;;;;;;;;25.55;18.06;102426.09;5049632;28;840;-74
2022/02/12 10:52:41;;;;;;;;;;;;;;;25.59;18.24;102434.03;5049628;28;1045;-74
2022/02/12 10:55:20;;;;;;;;;;;;;;;25.36;18.43;102434.88;5015057;28;900;-74
2022/02/12 10:57:46;;;;;;;;;;;;;;;24.86;18.41;102426.72;5031688;28;1310;-74
2022/02/12 11:00:13;;;;;;;;;;;;;;;25.20;18.32;102416.34;5031692;28;1139;-74
2022/02/12 11:02:39;;;;;;;;;;;;;;;27.44;15.99;102411.31;5050138;28;920;-74
2022/02/12 11:05:07;;;;;;;;;;;;;;;27.32;15.94;102413.72;5049290;28;750;-74
2022/02/12 11:07:34;;;;;;;;;;;;;;;27.89;15.96;102409.22;5049633;28;1914;-74
2022/02/12 11:10:00;;;;;;;;;;;;;;;25.15;17.85;102405.78;5049926;28;977;-74
2022/02/12 11:12:29;;;;;;;;;;;;;;;24.07;18.78;102399.59;5049570;28;1173;-74
2022/02/12 11:14:56;;;;;;;;;;;;;;;24.23;18.73;102395.94;5049552;28;990;-74
2022/02/12 11:17:25;;;;;;;;;;;;;;;26.60;16.69;102392.16;5049965;28;1326;-74
2022/02/12 11:19:52;;;;;;;;;;;;;;;26.02;16.81;102373.25;5050080;28;887;-74
2022/02/12 11:22:19;;;;;;;;;;;;;;;26.82;16.35;102382.88;5032062;28;1007;-73
2022/02/12 11:24:46;;;;;;;;;;;;;;;26.07;16.54;102368.00;5048795;28;1534;-74
2022/02/12 11:27:16;;;;;;;;;;;;;;;25.08;17.34;102374.22;5049293;28;1914;-74
2022/02/12 11:29:45;;;;;;;;;;;;;;;26.66;16.08;102372.75;5041743;28;1113;-74
2022/02/12 11:32:13;;;;;;;;;;;;;;;26.47;16.54;102365.84;5029560;28;986;-75
2022/02/12 11:34:43;;;;;;;;;;;;;;;25.15;17.16;102361.34;5013970;28;813;-74
2022/02/12 11:37:14;;;;;;;;;;;;;;;24.47;17.94;102357.25;5015301;28;1318;-74
2022/02/12 11:39:40;;;;;;;;;;;;;;;25.32;16.24;102350.09;5014207;28;1058;-75
2022/02/12 11:42:12;;;;;;;;;;;;;;;26.97;16.25;102348.56;4998976;28;2242;-74
2022/02/12 11:44:42;;;;;;;;;;;;;;;26.31;15.88;102347.41;5032641;28;931;-73
2022/02/12 11:47:10;;;;;;;;;;;;;;;25.82;16.00;102342.31;5032802;28;1981;-75
2022/02/12 11:49:36;;;;;;;;;;;;;;;27.09;15.04;102344.22;5015535;28;1003;-73
2022/02/12 11:52:06;;;;;;;;;;;;;;;26.22;15.19;102337.44;5015082;28;995;-73
2022/02/12 11:54:56;;;;;;;;;;;;;;;26.29;15.16;102335.59;5032425;28;986;-73
2022/02/12 11:57:42;;;;;;;;;;;;;;;26.42;14.94;102323.81;5033081;28;1423;-74
2022/02/12 12:00:27;;;;;;;;;;;;;;;25.62;14.89;102322.50;5015119;28;928;-75
2022/02/12 12:03:03;;;;;;;;;;;;;;;25.39;15.39;102315.88;5032545;28;932;-74
2022/02/12 12:05:30;;;;;;;;;;;;;;;26.03;14.74;102313.78;5032610;28;1023;-74
2022/02/12 12:08:08;;;;;;;;;;;;;;;24.93;15.82;102306.59;5032278;28;1395;-74
2022/02/12 12:10:35;;;;;;;;;;;;;;;24.08;16.46;102297.88;5032462;28;966;-74
2022/02/12 12:13:25;;;;;;;;;;;;;;;26.47;14.92;102312.09;5014345;28;1323;-73
2022/02/12 12:15:52;;;;;;;;;;;;;;;25.77;15.27;102297.50;5013973;28;1158;-74
2022/02/12 12:18:21;;;;;;;;;;;;;;;25.53;15.26;102297.50;5032043;28;1294;-74
2022/02/12 12:20:48;;;;;;;;;;;;;;;25.16;15.66;102287.19;5031944;28;1030;-75
2022/02/12 12:23:15;;;;;;;;;;;;;;;25.90;14.98;102283.81;5031992;28;812;-73
2022/02/12 12:25:50;;;;;;;;;;;;;;;27.10;13.90;102281.84;5013828;28;1914;-74
2022/02/12 12:28:23;;;;;;;;;;;;;;;26.84;14.00;102288.81;5031862;28;1381;-73
2022/02/12 12:30:49;;;;;;;;;;;;;;;25.62;14.94;102266.91;5032062;28;813;-73
2022/02/12 12:33:16;;;;;;;;;;;;;;;28.52;13.67;102266.06;4997883;28;1297;-74
2022/02/12 12:35:49;;;;;;;;;;;;;;;27.27;13.98;102260.16;5031846;28;707;-74
2022/02/12 12:38:15;;;;;;;;;;;;;;;27.25;13.71;102262.28;5039506;28;1475;-74
2022/02/12 12:40:43;;;;;;;;;;;;;;;26.75;13.99;102259.41;5020551;28;1311;-74
2022/02/12 12:43:09;;;;;;;;;;;;;;;26.22;14.13;102260.38;5031450;28;1022;-75
2022/02/12 12:45:38;;;;;;;;;;;;;;;26.40;14.45;102250.75;5036663;28;1467;-74
2022/02/12 12:48:05;;;;;;;;;;;;;;;25.74;14.82;102255.09;5051496;28;1985;-74
2022/02/12 12:50:34;;;;;;;;;;;;;;;25.93;15.44;102240.84;5051157;28;1494;-75
2022/02/12 12:53:03;;;;;;;;;;;;;;;23.08;17.82;102226.84;5051815;28;995;-75
2022/02/12 12:55:29;;;;;;;;;;;;;;;25.73;15.49;102227.50;5051147;28;1478;-75
2022/02/12 12:57:55;;;;;;;;;;;;;;;26.65;14.98;102229.03;5051513;28;1308;-75